Time;durP1;ratioP1;P1;durP2;ratioP2;P2;SDS_P1;SDS_P2;PMS_P1;PMS_P2;Temp;Humidity;BMP_temperature;BMP_pressure;BME280_temperature;BME280_humidity;BME280_pressure;Samples;Min_cycle;Max_cycle;Signal;HPM_P1;HPM_P2
2021/07/30 00:00:40;;;;;;;6.10;5.60;;;16.70;99.90;;;;;;4975813;28;20476;-88
2021/07/30 00:03:07;;;;;;;5.03;4.63;;;16.70;99.90;;;;;;4975757;28;20464;-88
2021/07/30 00:05:34;;;;;;;5.50;5.00;;;16.70;99.90;;;;;;4976020;28;20470;-89
2021/07/30 00:08:01;;;;;;;6.20;5.70;;;16.60;99.90;;;;;;4976118;28;20457;-88
2021/07/30 00:10:28;;;;;;;6.30;5.30;;;16.60;99.90;;;;;;4975717;28;20567;-90
2021/07/30 00:12:56;;;;;;;7.10;5.10;;;16.60;99.90;;;;;;4975844;28;20464;-88
2021/07/30 00:15:23;;;;;;;4.70;4.30;;;16.60;99.90;;;;;;4975866;28;20453;-88
2021/07/30 00:17:50;;;;;;;5.40;4.90;;;16.50;99.90;;;;;;4975720;28;20834;-89
2021/07/30 00:20:18;;;;;;;4.80;4.30;;;16.50;99.90;;;;;;4975674;28;20581;-88
2021/07/30 00:22:45;;;;;;;5.30;4.80;;;16.50;99.90;;;;;;4975601;28;20450;-88
2021/07/30 00:25:12;;;;;;;4.90;4.47;;;16.50;99.90;;;;;;4979536;28;20438;-88
2021/07/30 00:27:39;;;;;;;4.37;4.07;;;16.40;99.90;;;;;;4979835;28;20537;-88
2021/07/30 00:30:09;;;;;;;4.50;4.10;;;16.40;99.90;;;;;;4975909;28;20893;-88
2021/07/30 00:32:36;;;;;;;4.87;4.47;;;16.40;99.90;;;;;;4975315;28;20454;-88
2021/07/30 00:35:03;;;;;;;4.33;3.93;;;16.40;99.90;;;;;;4974496;28;20442;-88
2021/07/30 00:37:30;;;;;;;5.17;4.77;;;16.30;99.90;;;;;;4975511;28;20465;-88
2021/07/30 00:39:56;;;;;;;4.47;4.07;;;16.30;99.90;;;;;;4975375;28;20483;-90
2021/07/30 00:42:23;;;;;;;6.23;4.73;;;16.30;99.90;;;;;;4975235;28;20452;-88
2021/07/30 00:44:50;;;;;;;4.67;4.27;;;16.20;99.90;;;;;;4975302;28;20824;-87
2021/07/30 00:47:19;;;;;;;5.27;4.77;;;16.20;99.90;;;;;;4975111;28;20446;-90
2021/07/30 00:49:46;;;;;;;6.07;5.23;;;16.20;99.90;;;;;;4974967;28;20471;-88
2021/07/30 00:52:13;;;;;;;5.20;4.70;;;16.10;99.90;;;;;;4975307;28;20461;-88
2021/07/30 00:54:40;;;;;;;6.07;5.50;;;16.00;99.90;;;;;;4975140;28;20536;-87
2021/07/30 00:57:07;;;;;;;4.50;4.10;;;15.80;99.90;;;;;;4975074;28;20456;-90
2021/07/30 00:59:34;;;;;;;5.47;4.93;;;15.70;99.90;;;;;;4974937;28;20583;-88
2021/07/30 01:02:01;;;;;;;5.33;4.97;;;15.70;99.90;;;;;;4974987;28;20491;-88
2021/07/30 01:04:29;;;;;;;4.93;4.43;;;15.70;99.90;;;;;;4975097;28;20464;-87
2021/07/30 01:06:56;;;;;;;4.70;4.30;;;15.80;99.90;;;;;;4974818;28;20459;-88
2021/07/30 01:09:23;;;;;;;4.90;4.60;;;15.80;99.90;;;;;;4974766;28;20487;-89
2021/07/30 01:11:51;;;;;;;6.57;4.30;;;15.80;99.90;;;;;;4974670;28;20461;-87
2021/07/30 01:14:18;;;;;;;6.17;5.33;;;15.80;99.90;;;;;;4974866;28;20972;-88
2021/07/30 01:16:45;;;;;;;7.17;6.30;;;15.80;99.90;;;;;;4975127;28;20801;-88
2021/07/30 01:19:20;;;;;;;4.93;4.53;;;15.80;99.90;;;;;;4974511;28;20526;-88
2021/07/30 01:21:49;;;;;;;5.43;4.40;;;15.70;99.90;;;;;;4974773;28;20924;-88
2021/07/30 01:24:18;;;;;;;5.03;4.30;;;15.70;99.90;;;;;;4974642;28;20460;-88
2021/07/30 01:26:46;;;;;;;5.40;5.00;;;15.70;99.90;;;;;;4974679;28;20467;-88
2021/07/30 01:29:13;;;;;;;5.27;4.87;;;15.60;99.90;;;;;;4974257;28;21011;-88
2021/07/30 01:31:40;;;;;;;5.83;5.30;;;15.60;99.90;;;;;;4974541;28;20798;-90
2021/07/30 01:34:06;;;;;;;4.57;4.17;;;15.60;99.90;;;;;;4974232;28;20889;-88
2021/07/30 01:36:34;;;;;;;5.10;4.70;;;15.50;99.90;;;;;;4973852;28;20474;-88
2021/07/30 01:39:00;;;;;;;4.70;4.40;;;15.50;99.90;;;;;;4973748;28;20465;-88
2021/07/30 01:41:29;;;;;;;6.10;5.47;;;15.50;99.90;;;;;;4973860;28;20521;-88
2021/07/30 01:43:56;;;;;;;5.00;4.60;;;15.50;99.90;;;;;;4973862;28;20470;-88
2021/07/30 01:46:23;;;;;;;5.83;4.70;;;15.40;99.90;;;;;;4973653;28;20458;-88
2021/07/30 01:48:50;;;;;;;4.87;4.57;;;15.40;99.90;;;;;;4973690;28;20491;-88
2021/07/30 01:51:17;;;;;;;4.60;4.10;;;15.40;99.90;;;;;;4973701;28;20448;-88
2021/07/30 01:53:43;;;;;;;6.00;5.20;;;15.40;99.90;;;;;;4973874;28;20547;-88
2021/07/30 01:56:10;;;;;;;5.13;4.73;;;15.40;99.90;;;;;;4973739;28;20459;-88
2021/07/30 01:58:38;;;;;;;4.93;4.53;;;15.40;99.90;;;;;;4973910;28;20504;-87
2021/07/30 02:01:05;;;;;;;5.13;4.60;;;15.30;99.90;;;;;;4973457;28;20490;-88
2021/07/30 02:03:32;;;;;;;5.67;4.77;;;15.30;99.90;;;;;;4973731;28;20482;-88
2021/07/30 02:05:59;;;;;;;4.70;4.30;;;15.30;99.90;;;;;;4973035;28;20445;-89
2021/07/30 02:08:26;;;;;;;5.83;5.20;;;15.30;99.90;;;;;;4972446;28;20491;-88
2021/07/30 02:10:53;;;;;;;5.60;5.10;;;15.20;99.90;;;;;;4973311;28;20506;-87
2021/07/30 02:16:06;;;;;;;5.17;4.77;;;15.20;99.90;;;;;;4973465;28;20886;-89
2021/07/30 02:18:32;;;;;;;5.23;4.73;;;15.20;99.90;;;;;;4973364;28;20480;-88
2021/07/30 02:20:59;;;;;;;5.57;5.07;;;15.20;99.90;;;;;;4973451;28;20579;-88
2021/07/30 02:23:27;;;;;;;5.70;5.20;;;15.00;99.90;;;;;;4973310;28;20442;-88
2021/07/30 02:25:54;;;;;;;5.80;5.20;;;14.90;99.90;;;;;;4973253;28;20863;-88
2021/07/30 02:28:20;;;;;;;5.50;5.10;;;14.90;99.90;;;;;;4974606;28;20492;-88
2021/07/30 02:30:47;;;;;;;4.90;4.50;;;14.90;99.90;;;;;;4979768;28;20537;-88
2021/07/30 02:33:15;;;;;;;6.87;5.07;;;14.80;99.90;;;;;;4974165;28;20462;-87
2021/07/30 02:35:42;;;;;;;4.87;4.40;;;14.90;99.90;;;;;;4973227;28;20456;-87
2021/07/30 02:38:09;;;;;;;5.60;4.40;;;14.90;99.90;;;;;;4973092;28;20470;-88
2021/07/30 02:40:36;;;;;;;5.00;4.60;;;14.90;99.90;;;;;;4973067;28;20484;-88
2021/07/30 02:43:03;;;;;;;5.40;4.90;;;14.90;99.90;;;;;;4973037;28;21005;-88
2021/07/30 02:45:30;;;;;;;6.00;5.43;;;14.90;99.90;;;;;;4973041;28;20462;-88
2021/07/30 02:47:57;;;;;;;6.60;6.00;;;14.90;99.90;;;;;;4973000;28;20492;-88
2021/07/30 02:50:25;;;;;;;5.60;5.10;;;14.90;99.90;;;;;;4973293;28;20543;-88
2021/07/30 02:52:52;;;;;;;8.50;6.50;;;14.80;99.90;;;;;;4972953;28;20467;-88
2021/07/30 02:55:19;;;;;;;5.30;4.87;;;14.80;99.90;;;;;;4973073;28;20535;-88
2021/07/30 02:57:45;;;;;;;7.63;6.10;;;14.80;99.90;;;;;;4973365;28;20582;-88
2021/07/30 03:00:13;;;;;;;4.80;4.40;;;14.80;99.90;;;;;;4976823;28;20491;-88
2021/07/30 03:02:40;;;;;;;5.40;5.00;;;14.80;99.90;;;;;;4976781;28;20466;-88
2021/07/30 03:05:08;;;;;;;5.60;5.10;;;14.80;99.90;;;;;;4976748;28;20447;-88
2021/07/30 03:07:36;;;;;;;4.93;4.60;;;14.80;99.90;;;;;;4976567;28;20447;-87
2021/07/30 03:10:03;;;;;;;5.37;4.97;;;14.90;99.90;;;;;;4976716;28;20470;-87
2021/07/30 03:12:29;;;;;;;5.20;4.77;;;14.80;99.90;;;;;;4976488;28;20451;-88
2021/07/30 03:14:56;;;;;;;5.33;4.93;;;14.80;99.90;;;;;;4976785;28;20441;-88
2021/07/30 03:17:23;;;;;;;6.07;5.47;;;14.80;99.90;;;;;;4976559;28;20498;-88
2021/07/30 03:19:50;;;;;;;5.73;5.23;;;14.80;99.90;;;;;;4976552;28;20456;-88
2021/07/30 03:22:17;;;;;;;6.10;5.50;;;14.70;99.90;;;;;;4976741;28;20444;-88
2021/07/30 03:24:45;;;;;;;5.93;5.43;;;14.70;99.90;;;;;;4976466;28;20862;-88
2021/07/30 03:27:11;;;;;;;5.00;4.50;;;14.80;99.90;;;;;;4976671;28;20464;-89
2021/07/30 03:29:38;;;;;;;5.77;5.37;;;14.70;99.90;;;;;;4976398;28;20476;-88
2021/07/30 03:32:06;;;;;;;4.90;4.40;;;14.70;99.90;;;;;;4976212;28;20451;-88
2021/07/30 03:34:33;;;;;;;5.40;4.90;;;14.70;99.90;;;;;;4976129;28;20440;-88
2021/07/30 03:37:00;;;;;;;6.80;6.20;;;14.70;99.90;;;;;;4976308;28;20513;-89
2021/07/30 03:39:27;;;;;;;6.83;5.63;;;14.70;99.90;;;;;;4976150;28;20476;-88
2021/07/30 03:41:55;;;;;;;5.70;5.20;;;14.70;99.90;;;;;;4975985;28;21040;-88
2021/07/30 03:44:22;;;;;;;5.23;4.77;;;14.60;99.90;;;;;;4976313;28;20455;-88
2021/07/30 03:46:49;;;;;;;5.93;5.43;;;14.60;99.90;;;;;;4976253;28;20910;-88
2021/07/30 03:49:16;;;;;;;5.97;5.40;;;14.60;99.90;;;;;;4975981;28;20480;-87
2021/07/30 03:51:42;;;;;;;4.37;3.97;;;14.50;99.90;;;;;;4975972;28;20818;-88
2021/07/30 03:54:09;;;;;;;6.30;5.13;;;14.50;99.90;;;;;;4975865;28;20444;-88
2021/07/30 03:56:38;;;;;;;6.17;5.63;;;14.50;99.90;;;;;;4975930;28;20448;-88
2021/07/30 03:59:06;;;;;;;7.00;5.80;;;14.50;99.90;;;;;;4975632;28;20464;-88
2021/07/30 04:01:33;;;;;;;7.07;6.43;;;14.50;99.90;;;;;;4975378;28;20479;-88
2021/07/30 04:04:00;;;;;;;6.53;5.93;;;14.50;99.90;;;;;;4976046;28;20787;-87
2021/07/30 04:06:27;;;;;;;6.10;5.40;;;14.40;99.90;;;;;;4975686;28;20467;-88
2021/07/30 04:08:54;;;;;;;5.83;5.40;;;14.30;99.90;;;;;;4975477;28;20484;-88
2021/07/30 04:11:20;;;;;;;7.00;6.40;;;14.40;99.90;;;;;;4975626;28;20480;-90
2021/07/30 04:13:47;;;;;;;5.80;5.30;;;14.40;99.90;;;;;;4975586;28;20456;-88
2021/07/30 04:16:15;;;;;;;7.03;6.53;;;14.40;99.90;;;;;;4975538;28;20982;-87
2021/07/30 04:18:42;;;;;;;6.27;5.67;;;14.40;99.90;;;;;;4975668;28;20995;-87
2021/07/30 04:21:09;;;;;;;6.20;5.60;;;14.30;99.90;;;;;;4975292;28;20567;-88
2021/07/30 04:23:37;;;;;;;6.53;6.03;;;14.40;99.90;;;;;;4975457;28;20818;-87
2021/07/30 04:26:04;;;;;;;6.93;6.30;;;14.30;99.90;;;;;;4975425;28;20461;-88
2021/07/30 04:28:31;;;;;;;7.03;6.43;;;14.30;99.90;;;;;;4975380;28;20606;-90
2021/07/30 04:30:58;;;;;;;6.80;6.20;;;14.40;99.90;;;;;;4975113;28;20960;-88
2021/07/30 04:33:26;;;;;;;6.77;6.23;;;14.40;99.90;;;;;;4975088;28;20907;-87
2021/07/30 04:35:52;;;;;;;6.97;6.37;;;14.40;99.90;;;;;;4975352;28;20527;-88
2021/07/30 04:38:19;;;;;;;9.80;8.03;;;14.40;99.90;;;;;;4974939;28;20470;-88
2021/07/30 04:40:46;;;;;;;9.27;8.37;;;14.40;99.90;;;;;;4974774;28;20484;-87
2021/07/30 04:43:13;;;;;;;8.53;7.00;;;14.40;99.90;;;;;;4975139;28;20452;-89
2021/07/30 04:45:40;;;;;;;9.63;7.60;;;14.40;99.90;;;;;;4975197;28;20464;-88
2021/07/30 04:48:07;;;;;;;7.77;7.07;;;14.40;99.90;;;;;;4975167;28;20852;-88
2021/07/30 04:50:35;;;;;;;8.93;8.20;;;14.40;99.90;;;;;;4974839;28;20482;-88
2021/07/30 04:53:02;;;;;;;7.43;6.70;;;14.40;99.90;;;;;;4974893;28;20455;-88
2021/07/30 04:55:29;;;;;;;8.30;7.00;;;14.50;99.90;;;;;;4974784;28;20453;-87
2021/07/30 04:57:56;;;;;;;8.07;7.47;;;14.50;99.90;;;;;;4974559;28;20483;-88
2021/07/30 05:00:26;;;;;;;7.43;6.70;;;14.50;99.90;;;;;;4974675;28;20976;-88
2021/07/30 05:02:53;;;;;;;9.17;8.27;;;14.60;99.90;;;;;;4975038;28;20863;-88
2021/07/30 05:05:20;;;;;;;9.07;8.20;;;14.60;99.90;;;;;;4974599;28;20942;-88
2021/07/30 05:07:49;;;;;;;9.00;8.10;;;14.70;99.90;;;;;;4974847;28;20839;-88
2021/07/30 05:10:16;;;;;;;9.77;7.97;;;14.70;99.90;;;;;;4974930;28;20945;-90
2021/07/30 05:12:43;;;;;;;8.17;7.47;;;14.70;99.90;;;;;;4974479;28;20457;-87
2021/07/30 05:15:11;;;;;;;10.07;9.03;;;14.80;99.90;;;;;;4974733;28;20459;-87
2021/07/30 05:17:39;;;;;;;9.43;8.47;;;14.80;99.90;;;;;;4974443;28;20452;-88
2021/07/30 05:20:10;;;;;;;10.03;9.03;;;14.90;99.90;;;;;;4974232;28;20859;-88
2021/07/30 05:22:39;;;;;;;9.10;8.30;;;15.00;99.90;;;;;;4973942;28;20461;-87
2021/07/30 05:25:10;;;;;;;15.40;10.37;;;15.00;99.90;;;;;;4974422;28;20544;-87
2021/07/30 05:27:37;;;;;;;9.40;8.50;;;15.10;99.90;;;;;;4974094;28;20472;-88
2021/07/30 05:30:05;;;;;;;8.90;8.00;;;15.10;99.90;;;;;;4974229;28;20456;-88
2021/07/30 05:32:32;;;;;;;10.13;9.07;;;15.30;99.90;;;;;;4974055;28;20815;-88
2021/07/30 05:34:59;;;;;;;9.33;8.43;;;15.30;99.90;;;;;;4974399;28;20527;-87
2021/07/30 05:37:25;;;;;;;9.83;8.83;;;15.40;99.90;;;;;;4973817;28;20449;-87
2021/07/30 05:39:52;;;;;;;9.97;9.20;;;15.50;99.90;;;;;;4974058;28;20986;-88
2021/07/30 05:42:20;;;;;;;9.37;8.33;;;15.50;99.90;;;;;;4974036;28;20496;-88
2021/07/30 05:44:47;;;;;;;11.60;8.00;;;15.60;99.90;;;;;;4973699;28;20543;-88
2021/07/30 05:47:14;;;;;;;9.93;8.93;;;15.80;99.90;;;;;;4973886;28;20463;-88
2021/07/30 05:49:40;;;;;;;8.47;7.67;;;15.80;99.90;;;;;;4973703;28;20479;-88
2021/07/30 05:52:07;;;;;;;8.50;7.70;;;15.80;99.90;;;;;;4974088;28;20535;-88
2021/07/30 05:54:34;;;;;;;8.27;7.50;;;15.90;99.90;;;;;;4973517;28;21138;-87
2021/07/30 05:57:01;;;;;;;7.97;7.37;;;15.90;99.90;;;;;;4973646;28;20472;-88
2021/07/30 05:59:30;;;;;;;9.40;7.13;;;16.00;99.90;;;;;;4973821;28;20508;-85
2021/07/30 06:01:56;;;;;;;7.77;6.60;;;16.10;99.90;;;;;;4973345;28;20579;-88
2021/07/30 06:04:23;;;;;;;7.37;6.60;;;16.30;99.90;;;;;;4973569;28;20468;-88
2021/07/30 06:06:50;;;;;;;8.07;7.27;;;16.30;99.90;;;;;;4973552;28;20482;-88
2021/07/30 06:09:18;;;;;;;7.33;6.60;;;16.40;99.90;;;;;;4973489;28;20476;-88
2021/07/30 06:11:44;;;;;;;7.53;6.83;;;16.50;99.90;;;;;;4973448;28;20459;-85
2021/07/30 06:14:11;;;;;;;13.37;6.03;;;16.50;99.90;;;;;;4973746;28;20564;-85
2021/07/30 06:16:40;;;;;;;6.20;5.60;;;16.70;99.90;;;;;;4973838;28;20450;-85
2021/07/30 06:19:06;;;;;;;5.77;5.20;;;16.80;99.90;;;;;;4973533;28;20469;-85
2021/07/30 06:21:33;;;;;;;6.60;6.03;;;16.90;99.90;;;;;;4973559;28;20489;-85
2021/07/30 06:24:00;;;;;;;10.17;6.70;;;17.00;99.90;;;;;;4973394;28;20448;-88
2021/07/30 06:26:27;;;;;;;8.00;7.20;;;17.20;99.90;;;;;;4973439;28;20542;-86
2021/07/30 06:28:54;;;;;;;7.67;5.50;;;17.30;99.90;;;;;;4973112;28;20472;-86
2021/07/30 06:31:21;;;;;;;5.03;4.63;;;17.40;99.90;;;;;;4973237;28;20883;-86
2021/07/30 06:33:49;;;;;;;8.00;7.27;;;17.60;99.90;;;;;;4975513;28;20446;-85
2021/07/30 06:36:17;;;;;;;14.07;7.80;;;17.70;99.90;;;;;;4977838;28;20463;-86
2021/07/30 06:38:44;;;;;;;7.20;6.10;;;17.80;99.90;;;;;;4977901;28;20484;-87
2021/07/30 06:41:15;;;;;;;8.00;6.17;;;17.90;99.90;;;;;;4986723;28;20533;-87
2021/07/30 06:43:44;;;;;;;6.20;5.40;;;18.00;99.90;;;;;;4983901;28;20883;-88
2021/07/30 06:46:18;;;;;;;6.10;5.10;;;18.10;99.90;;;;;;4978595;28;20457;-87
2021/07/30 06:48:45;;;;;;;6.13;5.53;;;18.10;99.90;;;;;;4977597;28;20988;-88
2021/07/30 06:51:31;;;;;;;7.60;5.90;;;18.30;99.90;;;;;;4977743;28;20463;-86
2021/07/30 06:54:03;;;;;;;6.00;5.40;;;18.40;99.90;;;;;;4977245;28;20465;-86
2021/07/30 06:56:36;;;;;;;4.57;4.17;;;18.50;99.90;;;;;;4976682;28;20491;-87
2021/07/30 06:59:03;;;;;;;5.57;5.10;;;18.60;99.90;;;;;;4977044;28;20472;-87
2021/07/30 07:01:30;;;;;;;5.00;4.60;;;18.80;99.90;;;;;;4976486;28;20502;-87
2021/07/30 07:03:58;;;;;;;10.37;5.53;;;18.80;99.90;;;;;;4976953;28;20467;-87
2021/07/30 07:06:25;;;;;;;12.60;9.23;;;19.00;99.90;;;;;;4976582;28;20458;-88
2021/07/30 07:08:53;;;;;;;6.63;5.87;;;19.10;99.90;;;;;;4976529;28;20490;-87
2021/07/30 07:11:20;;;;;;;6.97;6.20;;;19.30;99.90;;;;;;4976558;28;20458;-87
2021/07/30 07:13:46;;;;;;;7.40;5.40;;;19.50;99.90;;;;;;4976429;28;20478;-87
2021/07/30 07:16:13;;;;;;;5.37;4.87;;;19.60;99.90;;;;;;4976729;28;20459;-87
2021/07/30 07:18:47;;;;;;;4.80;4.40;;;19.70;99.90;;;;;;4976504;28;20462;-87
2021/07/30 07:21:14;;;;;;;6.43;5.83;;;19.90;99.90;;;;;;4978016;28;20490;-87
2021/07/30 07:23:41;;;;;;;6.17;5.23;;;19.90;99.90;;;;;;4981591;28;20458;-86
2021/07/30 07:26:09;;;;;;;6.03;5.40;;;19.90;99.90;;;;;;4985844;28;20451;-85
2021/07/30 07:28:36;;;;;;;5.23;4.80;;;20.00;99.90;;;;;;4981364;28;20475;-86
2021/07/30 07:31:03;;;;;;;5.20;4.80;;;20.00;99.90;;;;;;4983141;28;20444;-86
2021/07/30 07:33:29;;;;;;;6.30;4.90;;;20.10;99.90;;;;;;4982795;28;20439;-86
2021/07/30 07:35:56;;;;;;;7.27;5.90;;;20.20;99.90;;;;;;4980902;28;20479;-85
2021/07/30 07:38:23;;;;;;;6.33;5.73;;;20.20;99.90;;;;;;4982769;28;20943;-85
2021/07/30 07:40:50;;;;;;;5.43;5.03;;;20.30;99.90;;;;;;4988522;28;20459;-85
2021/07/30 07:43:18;;;;;;;4.80;4.50;;;20.40;99.90;;;;;;4987278;28;20493;-85
2021/07/30 07:45:47;;;;;;;5.33;4.93;;;20.50;99.90;;;;;;4984619;28;20446;-86
2021/07/30 07:48:17;;;;;;;5.70;5.20;;;20.50;99.90;;;;;;4973290;28;20464;-86
2021/07/30 07:50:44;;;;;;;6.60;5.97;;;20.50;99.90;;;;;;4984121;28;20511;-85
2021/07/30 07:53:14;;;;;;;5.87;5.47;;;20.50;99.90;;;;;;4975598;28;20455;-86
2021/07/30 07:55:41;;;;;;;5.77;5.37;;;20.60;99.90;;;;;;4976136;28;20459;-85
2021/07/30 07:58:08;;;;;;;5.07;4.67;;;20.80;99.90;;;;;;4975779;28;20472;-85
2021/07/30 08:00:37;;;;;;;6.20;5.60;;;20.90;99.90;;;;;;4975998;28;20980;-85
2021/07/30 08:03:04;;;;;;;6.23;5.63;;;20.90;99.90;;;;;;4975311;28;20493;-85
2021/07/30 08:05:31;;;;;;;5.37;4.87;;;21.10;99.90;;;;;;4975561;28;20452;-85
2021/07/30 08:07:58;;;;;;;6.00;5.57;;;21.30;99.90;;;;;;4975988;28;20477;-88
2021/07/30 08:10:25;;;;;;;7.37;6.67;;;21.20;99.90;;;;;;4995662;28;20499;-88
2021/07/30 08:12:52;;;;;;;5.87;5.37;;;21.30;99.90;;;;;;4994718;28;20459;-87
2021/07/30 08:15:19;;;;;;;5.70;5.30;;;21.40;99.90;;;;;;4995303;28;20458;-88
2021/07/30 08:17:47;;;;;;;5.20;4.80;;;21.60;99.90;;;;;;4994788;28;20479;-87
2021/07/30 08:20:15;;;;;;;5.90;5.30;;;21.70;99.90;;;;;;4994635;28;20460;-88
2021/07/30 08:22:43;;;;;;;5.63;5.13;;;21.70;99.90;;;;;;4994646;28;20855;-88
2021/07/30 08:25:11;;;;;;;6.50;6.00;;;21.90;99.90;;;;;;4994531;28;20992;-88
2021/07/30 08:27:38;;;;;;;6.00;5.50;;;22.10;99.90;;;;;;4994789;28;20459;-88
2021/07/30 08:30:06;;;;;;;5.80;5.30;;;22.10;99.90;;;;;;4994622;28;20460;-89
2021/07/30 08:32:33;;;;;;;6.93;5.50;;;22.20;99.80;;;;;;4994828;28;20463;-90
2021/07/30 08:35:02;;;;;;;6.20;5.70;;;22.30;99.90;;;;;;4994387;28;20461;-88
2021/07/30 08:37:28;;;;;;;5.73;5.10;;;22.40;99.90;;;;;;4994572;28;20457;-85
2021/07/30 08:39:55;;;;;;;5.30;4.90;;;22.40;99.90;;;;;;4994597;28;20457;-88
2021/07/30 08:42:22;;;;;;;4.83;4.33;;;22.50;98.90;;;;;;4994180;28;20496;-88
2021/07/30 08:44:49;;;;;;;4.67;4.33;;;22.50;98.50;;;;;;4995297;28;20456;-88
2021/07/30 08:47:21;;;;;;;4.90;4.50;;;22.60;97.40;;;;;;4994986;28;20456;-90
2021/07/30 08:49:48;;;;;;;5.00;4.50;;;22.70;97.10;;;;;;4982455;28;20849;-88
2021/07/30 08:52:31;;;;;;;5.50;5.00;;;22.70;97.10;;;;;;4974541;28;20446;-93
2021/07/30 08:54:58;;;;;;;5.70;5.30;;;22.80;97.40;;;;;;4976615;28;20482;-92
2021/07/30 08:57:25;;;;;;;5.50;5.00;;;22.90;97.50;;;;;;4976675;28;20433;-89
2021/07/30 08:59:52;;;;;;;4.00;3.70;;;23.00;96.60;;;;;;4976835;28;20457;-88
2021/07/30 09:02:19;;;;;;;5.80;5.30;;;22.90;97.10;;;;;;4974255;28;20602;-87
2021/07/30 09:04:45;;;;;;;5.30;4.83;;;23.00;96.90;;;;;;4973289;28;21008;-88
2021/07/30 09:07:12;;;;;;;5.47;5.00;;;23.10;97.80;;;;;;4973588;28;20494;-86
2021/07/30 09:09:53;;;;;;;5.27;4.87;;;23.30;96.50;;;;;;4973178;28;20491;-89
2021/07/30 09:12:22;;;;;;;6.37;5.07;;;23.40;96.50;;;;;;4972816;28;20448;-89
2021/07/30 09:14:49;;;;;;;5.33;4.83;;;23.50;96.30;;;;;;4973178;28;20561;-88
2021/07/30 09:17:16;;;;;;;5.43;5.03;;;23.60;96.60;;;;;;4973344;28;20458;-87
2021/07/30 09:20:03;;;;;;;5.90;5.30;;;23.70;95.80;;;;;;4972945;28;20483;-88
2021/07/30 09:22:47;;;;;;;6.23;5.70;;;23.70;96.00;;;;;;4983566;28;20490;-88
2021/07/30 09:25:32;;;;;;;5.83;5.07;;;23.90;95.60;;;;;;4975285;28;20450;-87
2021/07/30 09:28:02;;;;;;;5.57;5.13;;;24.00;95.10;;;;;;4973309;28;20486;-87
2021/07/30 09:30:29;;;;;;;5.40;5.00;;;24.10;95.40;;;;;;4973258;28;20475;-88
2021/07/30 09:32:56;;;;;;;5.77;5.27;;;24.00;95.00;;;;;;4972642;28;20477;-90
2021/07/30 09:35:23;;;;;;;6.30;5.30;;;24.10;95.60;;;;;;4972683;28;20472;-90
2021/07/30 09:38:14;;;;;;;6.07;5.57;;;24.20;96.00;;;;;;4973154;28;20848;-91
2021/07/30 09:40:42;;;;;;;5.33;4.90;;;24.40;95.00;;;;;;4972987;28;20538;-91
2021/07/30 09:43:22;;;;;;;5.50;5.10;;;24.30;94.90;;;;;;4973053;28;21056;-88
2021/07/30 09:45:48;;;;;;;6.00;5.50;;;24.40;95.60;;;;;;4973615;28;20448;-87
2021/07/30 09:48:16;;;;;;;6.73;6.20;;;24.40;94.90;;;;;;4973911;28;20563;-89
2021/07/30 09:50:43;;;;;;;6.80;5.60;;;24.30;95.00;;;;;;4973538;28;20926;-88
2021/07/30 09:53:10;;;;;;;6.80;6.10;;;24.50;95.90;;;;;;4973778;28;20444;-88
2021/07/30 09:55:39;;;;;;;6.03;5.53;;;24.70;95.30;;;;;;4973901;28;20830;-89
2021/07/30 09:58:09;;;;;;;6.20;5.70;;;24.80;95.00;;;;;;4973541;28;20479;-85
2021/07/30 10:00:38;;;;;;;5.97;5.47;;;24.90;95.20;;;;;;4973994;28;20793;-86
2021/07/30 10:03:08;;;;;;;6.97;6.47;;;24.80;94.80;;;;;;4973395;28;20520;-86
2021/07/30 10:05:36;;;;;;;5.90;5.50;;;25.00;95.20;;;;;;4973752;28;20464;-85
2021/07/30 10:08:05;;;;;;;5.87;5.37;;;25.10;94.70;;;;;;4973451;28;21040;-86
2021/07/30 10:10:32;;;;;;;5.90;5.50;;;25.40;95.40;;;;;;4973517;28;20571;-85
2021/07/30 10:13:02;;;;;;;6.23;5.83;;;25.60;95.30;;;;;;4973096;28;20975;-85
2021/07/30 10:15:31;;;;;;;6.77;6.27;;;25.70;95.00;;;;;;4973805;28;20465;-85
2021/07/30 10:18:06;;;;;;;6.93;6.37;;;25.90;93.50;;;;;;4973459;28;20842;-85
2021/07/30 10:20:34;;;;;;;5.60;5.10;;;26.10;93.50;;;;;;4973358;28;21011;-85
2021/07/30 10:23:04;;;;;;;7.60;6.90;;;26.20;92.90;;;;;;4972926;28;20497;-85
2021/07/30 10:25:33;;;;;;;6.07;5.60;;;26.40;92.80;;;;;;4973207;28;20519;-85
2021/07/30 10:28:03;;;;;;;7.27;6.67;;;26.40;92.30;;;;;;4973156;28;20479;-84
2021/07/30 10:30:51;;;;;;;7.33;6.63;;;26.40;92.70;;;;;;4973558;28;20476;-84
2021/07/30 10:33:48;;;;;;;7.10;6.50;;;26.50;92.20;;;;;;4972912;28;20455;-84
2021/07/30 10:36:34;;;;;;;6.57;5.97;;;26.60;92.20;;;;;;4973323;28;20452;-84
2021/07/30 10:39:09;;;;;;;6.67;6.07;;;26.90;92.20;;;;;;4973434;28;20476;-84
2021/07/30 10:41:36;;;;;;;6.87;6.37;;;27.00;91.30;;;;;;4972808;28;20527;-85
2021/07/30 10:44:10;;;;;;;7.37;6.67;;;27.10;90.20;;;;;;4973197;28;20864;-85
2021/07/30 10:46:38;;;;;;;5.80;5.40;;;27.40;90.30;;;;;;4973145;28;20470;-85
2021/07/30 10:49:41;;;;;;;7.40;6.70;;;27.40;90.50;;;;;;4972887;28;20525;-85
2021/07/30 10:52:28;;;;;;;6.13;5.73;;;27.50;91.10;;;;;;4972832;28;20473;-85
2021/07/30 10:54:56;;;;;;;6.13;5.63;;;27.70;90.00;;;;;;4973235;28;20533;-85
2021/07/30 10:57:49;;;;;;;6.40;5.90;;;27.80;90.60;;;;;;4973505;28;20455;-85
2021/07/30 11:00:16;;;;;;;6.40;5.80;;;28.10;89.50;;;;;;4973141;28;20467;-86
2021/07/30 11:03:04;;;;;;;6.47;5.97;;;28.10;90.00;;;;;;4973040;28;20493;-85
2021/07/30 11:05:31;;;;;;;6.20;5.70;;;28.50;87.80;;;;;;4973197;28;20470;-86
2021/07/30 11:08:04;;;;;;;6.60;6.00;;;28.80;88.20;;;;;;4972877;28;21018;-86
2021/07/30 11:10:31;;;;;;;7.07;6.57;;;29.00;86.90;;;;;;5014591;22;20496;-84
2021/07/30 11:13:01;;;;;;;5.27;4.90;;;29.00;87.20;;;;;;5018745;28;20450;-84
2021/07/30 11:15:37;;;;;;;7.33;6.63;;;29.20;85.90;;;;;;5018837;28;20457;-84
2021/07/30 11:18:05;;;;;;;5.73;5.33;;;29.30;84.90;;;;;;5018608;28;20930;-84
2021/07/30 11:20:34;;;;;;;7.10;6.50;;;29.20;83.40;;;;;;5034365;28;20469;-85
2021/07/30 11:23:04;;;;;;;6.90;6.07;;;28.90;83.80;;;;;;5052721;28;20494;-82
2021/07/30 11:25:30;;;;;;;6.83;6.17;;;28.70;83.80;;;;;;5054120;28;20451;-84
2021/07/30 11:27:58;;;;;;;6.90;6.30;;;28.40;85.80;;;;;;5042057;28;20461;-85
2021/07/30 11:30:28;;;;;;;6.80;6.10;;;28.40;86.70;;;;;;5043048;28;20482;-85
2021/07/30 11:32:57;;;;;;;6.73;6.13;;;28.60;85.30;;;;;;5049577;28;20454;-86
2021/07/30 11:35:29;;;;;;;6.63;6.03;;;28.70;85.90;;;;;;5055487;28;20484;-82
2021/07/30 11:38:00;;;;;;;5.83;5.40;;;28.70;85.50;;;;;;5052319;28;20482;-82
2021/07/30 11:40:27;;;;;;;6.60;6.00;;;28.60;85.80;;;;;;5057648;28;20935;-83
2021/07/30 11:43:05;;;;;;;6.43;6.03;;;28.30;85.60;;;;;;5038308;28;20490;-82
2021/07/30 11:45:33;;;;;;;7.17;6.33;;;28.20;85.50;;;;;;5034794;28;20506;-83
2021/07/30 11:47:59;;;;;;;6.30;5.70;;;28.20;87.50;;;;;;5040370;28;20449;-82
2021/07/30 11:50:30;;;;;;;6.93;6.20;;;28.50;85.80;;;;;;5040849;28;20487;-82
2021/07/30 11:53:04;;;;;;;7.10;6.40;;;28.40;85.40;;;;;;5040472;28;20488;-81
2021/07/30 11:55:31;;;;;;;7.80;7.10;;;28.50;86.10;;;;;;5041536;28;20454;-83
2021/07/30 11:58:10;;;;;;;6.53;6.03;;;28.90;85.30;;;;;;5041553;28;20592;-83
2021/07/30 12:00:36;;;;;;;6.03;5.60;;;29.40;83.50;;;;;;5041285;28;20839;-84
2021/07/30 12:03:17;;;;;;;5.60;5.20;;;30.20;82.00;;;;;;5040763;28;20485;-83
2021/07/30 12:05:47;;;;;;;7.40;6.70;;;31.00;82.30;;;;;;5041802;28;20850;-84
2021/07/30 12:08:16;;;;;;;5.50;5.20;;;31.70;79.00;;;;;;5041855;28;20850;-85
2021/07/30 12:10:43;;;;;;;5.90;5.50;;;32.30;75.50;;;;;;5046550;28;20470;-85
2021/07/30 12:13:10;;;;;;;6.00;5.50;;;32.40;73.70;;;;;;5047470;28;20430;-84
2021/07/30 12:15:41;;;;;;;7.27;6.77;;;32.80;72.80;;;;;;5043367;28;20446;-83
2021/07/30 12:18:12;;;;;;;6.60;6.00;;;33.20;71.50;;;;;;5042918;28;20447;-84
2021/07/30 12:20:43;;;;;;;6.40;6.00;;;32.50;69.60;;;;;;5042679;28;21215;-84
2021/07/30 12:23:15;;;;;;;6.90;6.40;;;32.00;71.80;;;;;;5042691;28;21070;-84
2021/07/30 12:25:45;;;;;;;8.93;8.27;;;31.30;74.40;;;;;;5042859;28;21038;-84
2021/07/30 12:28:14;;;;;;;8.20;7.60;;;31.10;73.30;;;;;;5043673;28;20453;-84
2021/07/30 12:30:41;;;;;;;8.00;7.40;;;30.70;74.80;;;;;;5041829;28;20565;-84
2021/07/30 12:33:25;;;;;;;8.07;7.43;;;30.70;76.10;;;;;;5042480;28;20456;-84
2021/07/30 12:36:03;;;;;;;9.17;8.37;;;30.40;75.90;;;;;;5043490;28;20460;-84
2021/07/30 12:38:31;;;;;;;8.27;7.57;;;30.20;75.70;;;;;;5042189;28;20533;-83
2021/07/30 12:41:15;;;;;;;8.93;8.13;;;29.70;77.40;;;;;;5042192;28;20488;-84
2021/07/30 12:43:44;;;;;;;7.40;6.80;;;29.40;78.00;;;;;;5041828;28;20562;-83
2021/07/30 12:46:11;;;;;;;7.23;6.63;;;29.20;80.30;;;;;;5042493;28;20810;-83
2021/07/30 12:48:47;;;;;;;7.53;6.83;;;29.10;79.20;;;;;;5042580;28;20507;-84
2021/07/30 12:51:23;;;;;;;8.90;8.00;;;29.20;81.30;;;;;;5042164;28;20503;-83
2021/07/30 12:54:05;;;;;;;8.13;7.53;;;29.30;79.70;;;;;;5043036;28;20448;-84
2021/07/30 12:57:00;;;;;;;8.30;7.70;;;29.30;79.50;;;;;;5042791;28;20452;-84